createdAt,value
2022-09-20T00:00:22.393Z,100.00
2022-09-20T00:01:22.837Z,100.00
2022-09-20T00:02:19.665Z,100.00
2022-09-20T00:03:17.582Z,100.00
2022-09-20T00:04:14.304Z,100.00
2022-09-20T00:05:11.149Z,100.00
2022-09-20T00:06:11.005Z,100.00
2022-09-20T00:07:07.693Z,100.00
2022-09-20T00:08:06.265Z,100.00
2022-09-20T00:09:04.475Z,100.00
2022-09-20T00:10:01.336Z,100.00
2022-09-20T00:11:01.622Z,100.00
2022-09-20T00:11:58.335Z,100.00
2022-09-20T00:12:55.010Z,100.00
2022-09-20T00:13:56.361Z,100.00
2022-09-20T00:14:53.202Z,100.00
2022-09-20T00:15:49.876Z,100.00
2022-09-20T00:16:46.633Z,100.00
2022-09-20T00:17:43.347Z,100.00
2022-09-20T00:18:41.071Z,100.00
2022-09-20T00:19:37.755Z,100.00
2022-09-20T00:20:34.435Z,100.00
2022-09-20T00:21:33.098Z,100.00
2022-09-20T00:22:29.786Z,100.00
2022-09-20T00:23:26.452Z,100.00
2022-09-20T00:24:23.171Z,100.00
2022-09-20T00:25:20.655Z,100.00
2022-09-20T00:26:17.608Z,100.00
2022-09-20T00:27:14.434Z,100.00
2022-09-20T00:28:11.497Z,100.00
2022-09-20T00:29:08.294Z,100.00
2022-09-20T00:30:05.492Z,100.00
2022-09-20T00:31:02.240Z,100.00
2022-09-20T00:31:58.996Z,100.00
2022-09-20T00:32:55.718Z,100.00
2022-09-20T00:34:14.939Z,100.00
2022-09-20T00:35:11.737Z,100.00
2022-09-20T00:36:08.541Z,100.00
2022-09-20T00:37:05.342Z,100.00
2022-09-20T00:38:02.097Z,100.00
2022-09-20T00:39:00.915Z,100.00
2022-09-20T00:39:57.674Z,100.00
2022-09-20T00:40:54.379Z,100.00
2022-09-20T00:41:51.037Z,100.00
2022-09-20T00:42:49.068Z,100.00
2022-09-20T00:43:47.202Z,100.00
2022-09-20T00:45:00.632Z,100.00
2022-09-20T00:45:57.831Z,100.00
2022-09-20T00:46:54.745Z,100.00
2022-09-20T00:48:27.412Z,100.00
2022-09-20T00:49:38.231Z,100.00
2022-09-20T00:51:00.063Z,100.00
2022-09-20T00:52:01.489Z,100.00
2022-09-20T00:53:01.919Z,100.00
2022-09-20T00:54:04.951Z,100.00
2022-09-20T00:55:07.692Z,100.00
2022-09-20T00:56:11.908Z,100.00
2022-09-20T00:57:08.654Z,100.00
2022-09-20T00:58:06.809Z,100.00
2022-09-20T00:59:18.417Z,100.00
2022-09-20T01:00:15.945Z,100.00
2022-09-20T01:01:14.327Z,100.00
2022-09-20T01:02:26.216Z,100.00
2022-09-20T01:03:27.997Z,100.00
2022-09-20T01:04:28.510Z,100.00
2022-09-20T01:05:26.814Z,100.00
2022-09-20T01:06:23.614Z,100.00
2022-09-20T01:07:22.799Z,100.00
2022-09-20T01:08:21.400Z,100.00
2022-09-20T01:09:18.095Z,100.00
2022-09-20T01:10:15.005Z,100.00
2022-09-20T01:11:12.552Z,100.00
2022-09-20T01:12:16.359Z,100.00
2022-09-20T01:13:13.249Z,100.00
2022-09-20T01:14:10.769Z,100.00
2022-09-20T01:15:10.537Z,100.00
2022-09-20T01:16:08.511Z,100.00
2022-09-20T01:17:08.091Z,100.00
2022-09-20T01:18:09.353Z,100.00
2022-09-20T01:19:40.961Z,100.00
2022-09-20T01:20:42.185Z,100.00
2022-09-20T01:21:39.452Z,100.00
2022-09-20T01:22:48.767Z,100.00
2022-09-20T01:24:00.316Z,100.00
2022-09-20T01:25:06.130Z,100.00
2022-09-20T01:26:22.702Z,100.00
2022-09-20T01:27:41.046Z,100.00
2022-09-20T01:28:42.314Z,100.00
2022-09-20T01:30:08.114Z,100.00
2022-09-20T01:31:17.670Z,100.00
2022-09-20T01:32:23.671Z,100.00
2022-09-20T01:33:49.693Z,100.00
2022-09-20T01:34:58.240Z,100.00
2022-09-20T01:36:01.073Z,100.00
2022-09-20T01:37:32.971Z,100.00
2022-09-20T01:39:06.077Z,100.00
2022-09-20T01:40:10.613Z,100.00
2022-09-20T01:41:21.974Z,100.00
2022-09-20T01:42:18.751Z,100.00
2022-09-20T01:43:32.900Z,100.00
2022-09-20T01:44:53.857Z,100.00
2022-09-20T01:45:50.740Z,100.00
2022-09-20T01:46:59.914Z,100.00
2022-09-20T01:47:56.555Z,100.00
2022-09-20T01:49:07.333Z,100.00
2022-09-20T01:50:48.329Z,100.00
2022-09-20T01:52:03.293Z,100.00
2022-09-20T01:53:23.757Z,100.00
2022-09-20T01:54:38.694Z,100.00
2022-09-20T01:55:37.950Z,100.00
2022-09-20T01:57:13.327Z,100.00
2022-09-20T01:58:12.965Z,100.00
2022-09-20T01:59:26.134Z,100.00
2022-09-20T02:00:38.948Z,100.00
2022-09-20T02:01:41.360Z,100.00
2022-09-20T02:03:15.612Z,100.00
2022-09-20T02:04:28.187Z,100.00
2022-09-20T02:05:24.773Z,100.00
2022-09-20T02:06:39.295Z,100.00
2022-09-20T02:07:42.117Z,100.00
2022-09-20T02:08:51.102Z,100.00
2022-09-20T02:10:06.329Z,100.00
2022-09-20T02:11:07.297Z,100.00
2022-09-20T02:12:19.544Z,100.00
2022-09-20T02:13:28.508Z,100.00
2022-09-20T02:14:25.141Z,100.00
2022-09-20T02:15:48.029Z,100.00
2022-09-20T02:17:20.006Z,100.00
2022-09-20T02:18:44.167Z,100.00
2022-09-20T02:19:43.467Z,100.00
2022-09-20T02:21:12.041Z,100.00
2022-09-20T02:22:34.137Z,100.00
2022-09-20T02:23:31.057Z,100.00
2022-09-20T02:24:46.506Z,100.00
2022-09-20T02:26:14.130Z,100.00
2022-09-20T02:27:50.291Z,100.00
2022-09-20T02:28:49.792Z,100.00
2022-09-20T02:30:05.037Z,100.00
2022-09-20T02:31:20.285Z,100.00
2022-09-20T02:32:47.821Z,100.00
2022-09-20T02:33:56.598Z,100.00
2022-09-20T02:35:08.319Z,100.00
2022-09-20T02:36:08.241Z,100.00
2022-09-20T02:37:39.646Z,100.00
2022-09-20T02:38:52.751Z,100.00
2022-09-20T02:40:08.826Z,100.00
2022-09-20T02:41:31.626Z,100.00
2022-09-20T02:42:33.721Z,100.00
2022-09-20T02:43:48.803Z,100.00
2022-09-20T02:45:07.174Z,100.00
2022-09-20T02:46:13.993Z,100.00
2022-09-20T02:47:28.607Z,100.00
2022-09-20T02:48:43.649Z,100.00
2022-09-20T02:49:55.231Z,100.00
2022-09-20T02:51:27.358Z,100.00
2022-09-20T02:52:32.274Z,100.00
2022-09-20T02:53:28.938Z,100.00
2022-09-20T02:54:44.850Z,100.00
2022-09-20T02:55:54.344Z,100.00
2022-09-20T02:57:07.981Z,100.00
2022-09-20T02:58:25.315Z,100.00
2022-09-20T02:59:40.554Z,100.00
2022-09-20T03:00:54.348Z,100.00
2022-09-20T03:02:14.530Z,100.00
2022-09-20T03:03:31.851Z,100.00
2022-09-20T03:04:43.622Z,100.00
2022-09-20T03:06:15.574Z,100.00
2022-09-20T03:07:51.693Z,100.00
2022-09-20T03:09:19.144Z,100.00
2022-09-20T03:10:47.689Z,100.00
2022-09-20T03:12:02.648Z,100.00
2022-09-20T03:13:29.825Z,100.00
2022-09-20T03:14:36.586Z,100.00
2022-09-20T03:16:03.066Z,100.00
2022-09-20T03:17:36.460Z,100.00
2022-09-20T03:19:03.919Z,100.00
2022-09-20T03:20:12.799Z,100.00
2022-09-20T03:21:24.109Z,100.00
2022-09-20T03:23:02.416Z,100.00
2022-09-20T03:24:36.468Z,100.00
2022-09-20T03:25:33.118Z,100.00
2022-09-20T03:27:03.794Z,100.00
2022-09-20T03:28:30.959Z,100.00
2022-09-20T03:29:36.555Z,100.00
2022-09-20T03:30:41.521Z,100.00
2022-09-20T03:31:50.771Z,100.00
2022-09-20T03:33:02.294Z,100.00
2022-09-20T03:34:14.065Z,100.00
2022-09-20T03:35:16.751Z,100.00
2022-09-20T03:36:38.160Z,100.00
2022-09-20T03:37:56.344Z,100.00
2022-09-20T03:39:02.658Z,100.00
2022-09-20T03:40:26.759Z,100.00
2022-09-20T03:41:41.403Z,100.00
2022-09-20T03:42:48.192Z,100.00
2022-09-20T03:44:00.784Z,100.00
2022-09-20T03:45:16.288Z,100.00
2022-09-20T03:46:26.975Z,100.00
2022-09-20T03:47:52.766Z,100.00
2022-09-20T03:49:35.862Z,100.00
2022-09-20T03:50:54.238Z,100.00
2022-09-20T03:52:23.498Z,100.00
2022-09-20T03:53:45.737Z,100.00
2022-09-20T03:55:10.034Z,100.00
2022-09-20T03:56:31.031Z,100.00
2022-09-20T03:57:35.646Z,100.00
2022-09-20T03:59:03.342Z,100.00
2022-09-20T04:00:16.665Z,100.00
2022-09-20T04:01:35.383Z,100.00
2022-09-20T04:03:00.549Z,100.00
2022-09-20T04:04:22.114Z,100.00
2022-09-20T04:05:29.274Z,100.00
2022-09-20T04:06:56.446Z,100.00
2022-09-20T04:08:18.023Z,100.00
2022-09-20T04:09:43.960Z,100.00
2022-09-20T04:10:54.702Z,100.00
2022-09-20T04:11:51.824Z,100.00
2022-09-20T04:13:07.402Z,100.00
2022-09-20T04:14:23.193Z,100.00
2022-09-20T04:15:35.531Z,100.00
2022-09-20T04:16:32.217Z,100.00
2022-09-20T04:17:49.162Z,100.00
2022-09-20T04:18:57.837Z,100.00
2022-09-20T04:20:07.075Z,100.00
2022-09-20T04:21:28.986Z,100.00
2022-09-20T04:22:30.085Z,100.00
2022-09-20T04:23:44.734Z,100.00
2022-09-20T04:25:04.701Z,100.00
2022-09-20T04:26:03.294Z,100.00
2022-09-20T04:27:23.020Z,100.00
2022-09-20T04:28:33.769Z,100.00
2022-09-20T04:29:44.753Z,100.00
2022-09-20T04:30:44.725Z,100.00
2022-09-20T04:31:56.430Z,100.00
2022-09-20T04:33:03.668Z,100.00
2022-09-20T04:34:04.929Z,100.00
2022-09-20T04:35:42.686Z,100.00
2022-09-20T04:37:05.020Z,100.00
2022-09-20T04:38:07.976Z,100.00
2022-09-20T04:39:34.478Z,100.00
2022-09-20T04:40:33.932Z,100.00
2022-09-20T04:41:37.840Z,100.00
2022-09-20T04:42:52.533Z,100.00
2022-09-20T04:44:27.951Z,100.00
2022-09-20T04:46:09.745Z,100.00
2022-09-20T04:47:51.337Z,100.00
2022-09-20T04:49:05.992Z,100.00
2022-09-20T04:50:21.353Z,100.00
2022-09-20T04:51:39.801Z,100.00
2022-09-20T04:52:55.233Z,100.00
2022-09-20T04:53:52.326Z,100.00
2022-09-20T04:55:10.281Z,100.00
2022-09-20T04:56:28.513Z,100.00
2022-09-20T04:58:05.007Z,100.00
2022-09-20T04:59:10.327Z,100.00
2022-09-20T05:00:12.313Z,100.00
2022-09-20T05:01:16.678Z,100.00
2022-09-20T05:02:44.928Z,100.00
2022-09-20T05:04:08.772Z,100.00
2022-09-20T05:05:26.908Z,100.00
2022-09-20T05:06:52.505Z,100.00
2022-09-20T05:07:58.394Z,100.00
2022-09-20T05:09:15.241Z,100.00
2022-09-20T05:10:33.474Z,100.00
2022-09-20T05:11:48.564Z,100.00
2022-09-20T05:13:20.253Z,100.00
2022-09-20T05:14:38.727Z,100.00
2022-09-20T05:16:08.491Z,100.00
2022-09-20T05:17:32.864Z,100.00
2022-09-20T05:18:35.703Z,100.00
2022-09-20T05:20:03.155Z,100.00
2022-09-20T05:21:03.565Z,100.00
2022-09-20T05:22:37.484Z,100.00
2022-09-20T05:23:49.134Z,100.00
2022-09-20T05:25:01.019Z,100.00
2022-09-20T05:26:27.665Z,100.00
2022-09-20T05:27:45.507Z,100.00
2022-09-20T05:29:10.169Z,100.00
2022-09-20T05:30:19.401Z,100.00
2022-09-20T05:31:38.182Z,100.00
2022-09-20T05:32:34.889Z,100.00
2022-09-20T05:33:53.044Z,100.00
2022-09-20T05:35:02.067Z,100.00
2022-09-20T05:36:08.709Z,100.00
2022-09-20T05:37:24.122Z,100.00
2022-09-20T05:38:45.618Z,100.00
2022-09-20T05:39:54.511Z,100.00
2022-09-20T05:41:07.554Z,100.00
2022-09-20T05:42:18.698Z,100.00
2022-09-20T05:43:53.530Z,100.00
2022-09-20T05:45:13.529Z,100.00
2022-09-20T05:46:34.317Z,100.00
2022-09-20T05:47:49.581Z,100.00
2022-09-20T05:48:59.161Z,100.00
2022-09-20T05:50:19.973Z,100.00
2022-09-20T05:51:33.915Z,100.00
2022-09-20T05:52:45.612Z,100.00
2022-09-20T05:53:51.407Z,100.00
2022-09-20T05:55:19.647Z,100.00
2022-09-20T05:56:27.623Z,100.00
2022-09-20T05:57:49.338Z,100.00
2022-09-20T05:59:27.144Z,100.00
2022-09-20T06:00:35.545Z,100.00
2022-09-20T06:01:58.195Z,100.00
2022-09-20T06:03:18.212Z,100.00
2022-09-20T06:04:28.593Z,100.00
2022-09-20T06:05:47.152Z,100.00
2022-09-20T06:06:51.004Z,100.00
2022-09-20T06:08:12.625Z,100.00
2022-09-20T06:09:09.214Z,100.00
2022-09-20T06:10:41.580Z,100.00
2022-09-20T06:12:02.808Z,100.00
2022-09-20T06:13:24.753Z,100.00
2022-09-20T06:14:36.730Z,100.00
2022-09-20T06:15:56.286Z,100.00
2022-09-20T06:16:55.970Z,100.00
2022-09-20T06:18:04.784Z,100.00
2022-09-20T06:19:15.220Z,100.00
2022-09-20T06:20:11.968Z,100.00
2022-09-20T06:21:40.346Z,100.00
2022-09-20T06:22:46.037Z,100.00
2022-09-20T06:23:44.107Z,100.00
2022-09-20T06:24:48.751Z,100.00
2022-09-20T06:25:57.295Z,100.00
2022-09-20T06:26:58.638Z,100.00
2022-09-20T06:28:17.286Z,100.00
2022-09-20T06:29:19.997Z,100.00
2022-09-20T06:30:50.089Z,100.00
2022-09-20T06:31:46.795Z,100.00
2022-09-20T06:33:21.533Z,100.00
2022-09-20T06:34:18.269Z,100.00
2022-09-20T06:35:15.094Z,100.00
2022-09-20T06:36:35.891Z,100.00
2022-09-20T06:38:01.284Z,100.00
2022-09-20T06:39:38.327Z,100.00
2022-09-20T06:41:08.390Z,100.00
2022-09-20T06:42:27.017Z,100.00
2022-09-20T06:43:43.073Z,100.00
2022-09-20T06:44:41.327Z,100.00
2022-09-20T06:45:38.068Z,100.00
2022-09-20T06:46:36.213Z,100.00
2022-09-20T06:47:35.731Z,100.00
2022-09-20T06:48:40.072Z,100.00
2022-09-20T06:49:36.895Z,100.00
2022-09-20T06:50:36.211Z,100.00
2022-09-20T06:51:38.656Z,100.00
2022-09-20T06:52:35.709Z,100.00
2022-09-20T06:53:37.227Z,100.00
2022-09-20T06:54:34.506Z,100.00
2022-09-20T06:55:40.898Z,100.00
2022-09-20T06:56:37.891Z,100.00
2022-09-20T06:57:40.280Z,100.00
2022-09-20T06:58:36.961Z,100.00
2022-09-20T06:59:33.663Z,100.00
2022-09-20T07:00:30.560Z,100.00
2022-09-20T07:01:30.434Z,100.00
2022-09-20T07:02:27.471Z,100.00
2022-09-20T07:03:24.157Z,100.00
2022-09-20T07:04:23.420Z,100.00
2022-09-20T07:05:26.544Z,99.99
2022-09-20T07:06:23.241Z,100.00
2022-09-20T07:07:19.973Z,100.00
2022-09-20T07:08:17.214Z,100.00
2022-09-20T07:09:14.069Z,100.00
2022-09-20T07:10:15.440Z,100.00
2022-09-20T07:11:16.317Z,96.20
2022-09-20T07:12:13.270Z,94.52
2022-09-20T07:13:13.740Z,95.48
2022-09-20T07:14:10.835Z,96.63
2022-09-20T07:15:08.894Z,95.48
2022-09-20T07:16:08.722Z,96.50
2022-09-20T07:17:06.565Z,96.75
2022-09-20T07:18:03.266Z,97.47
2022-09-20T07:19:00.500Z,97.74
2022-09-20T07:19:57.204Z,97.52
2022-09-20T07:20:54.272Z,96.88
2022-09-20T07:21:50.981Z,96.18
2022-09-20T07:22:49.172Z,96.95
2022-09-20T07:23:46.317Z,100.00
2022-09-20T07:24:44.911Z,94.67
2022-09-20T07:25:41.621Z,95.68
2022-09-20T07:26:39.088Z,94.35
2022-09-20T07:27:36.136Z,93.85
2022-09-20T07:28:35.211Z,93.22
2022-09-20T07:29:32.279Z,93.23
2022-09-20T07:30:28.991Z,92.17
2022-09-20T07:31:28.971Z,92.95
2022-09-20T07:32:26.950Z,94.02
2022-09-20T07:33:25.082Z,92.39
2022-09-20T07:34:21.847Z,92.81
2022-09-20T07:35:18.827Z,92.86
2022-09-20T07:36:16.615Z,93.07
2022-09-20T07:37:14.004Z,92.18
2022-09-20T07:38:10.753Z,90.26
2022-09-20T07:39:07.466Z,88.81
2022-09-20T07:40:05.499Z,88.20
2022-09-20T07:41:02.969Z,89.46
2022-09-20T07:41:59.710Z,91.64
2022-09-20T07:42:57.778Z,93.14
2022-09-20T07:43:54.514Z,92.63
2022-09-20T07:44:54.003Z,90.34
2022-09-20T07:45:56.048Z,89.78
2022-09-20T07:46:55.299Z,87.93
2022-09-20T07:47:54.436Z,86.68
2022-09-20T07:48:51.420Z,87.69
2022-09-20T07:49:48.081Z,86.74
2022-09-20T07:50:51.224Z,85.32
2022-09-20T07:51:48.759Z,86.22
2022-09-20T07:52:45.734Z,85.80
2022-09-20T07:53:42.482Z,86.74
2022-09-20T07:54:39.930Z,85.99
2022-09-20T07:55:37.074Z,85.44
2022-09-20T07:56:33.856Z,84.88
2022-09-20T07:57:35.010Z,83.97
2022-09-20T07:58:35.083Z,85.07
2022-09-20T07:59:31.895Z,80.76
2022-09-20T08:00:28.691Z,79.46
2022-09-20T08:01:44.093Z,80.76
2022-09-20T08:03:00.391Z,80.55
2022-09-20T08:04:15.594Z,80.51
2022-09-20T08:05:12.762Z,83.09
2022-09-20T08:06:11.932Z,83.54
2022-09-20T08:07:08.930Z,82.77
2022-09-20T08:08:05.671Z,79.61
2022-09-20T08:09:02.382Z,79.73
2022-09-20T08:09:59.740Z,79.00
2022-09-20T08:11:03.254Z,76.86
2022-09-20T08:14:05.173Z,75.18
2022-09-20T08:14:33.889Z,72.08
2022-09-20T08:15:31.047Z,72.36
2022-09-20T08:16:29.588Z,72.53
2022-09-20T08:17:26.357Z,70.61
2022-09-20T08:18:25.302Z,70.94
2022-09-20T08:19:23.228Z,67.75
2022-09-20T08:20:20.283Z,68.19
2022-09-20T08:21:17.716Z,69.10
2022-09-20T08:22:14.478Z,69.28
2022-09-20T08:23:23.355Z,69.35
2022-09-20T08:24:21.591Z,65.04
2022-09-20T08:25:18.352Z,65.30
2022-09-20T08:26:18.434Z,67.35
2022-09-20T08:27:15.169Z,67.78
2022-09-20T08:28:11.932Z,66.56
2022-09-20T08:29:08.724Z,65.72
2022-09-20T08:30:06.441Z,66.05
2022-09-20T08:31:05.881Z,65.94
2022-09-20T08:32:03.280Z,65.14
2022-09-20T08:33:00.079Z,64.77
2022-09-20T08:33:57.004Z,64.29
2022-09-20T08:34:53.778Z,62.82
2022-09-20T08:35:50.445Z,62.36
2022-09-20T08:36:47.261Z,63.65
2022-09-20T08:37:45.544Z,62.33
2022-09-20T08:39:59.548Z,64.05
2022-09-20T08:41:17.653Z,64.00
2022-09-20T08:42:42.073Z,64.14
2022-09-20T08:43:50.324Z,64.53
2022-09-20T08:44:58.541Z,65.03
2022-09-20T08:46:05.543Z,64.99
2022-09-20T08:47:22.084Z,68.13
2022-09-20T08:48:35.295Z,66.91
2022-09-20T08:49:33.499Z,66.35
2022-09-20T08:50:30.211Z,68.67
2022-09-20T08:51:33.152Z,67.56
2022-09-20T08:52:40.823Z,66.58
2022-09-20T08:53:49.129Z,65.69
2022-09-20T08:54:46.899Z,68.13
2022-09-20T08:55:44.122Z,67.17
2022-09-20T08:56:40.831Z,66.45
2022-09-20T08:57:37.554Z,67.28
2022-09-20T08:58:34.257Z,67.14
2022-09-20T08:59:32.658Z,66.17
2022-09-20T09:00:33.327Z,64.60
2022-09-20T09:01:32.445Z,63.65
2022-09-20T09:02:31.804Z,61.88
2022-09-20T09:03:28.505Z,61.79
2022-09-20T09:04:36.414Z,61.68
2022-09-20T09:05:36.834Z,61.84
2022-09-20T09:06:33.931Z,61.06
2022-09-20T09:07:30.768Z,62.62
2022-09-20T09:08:38.034Z,64.06
2022-09-20T09:09:42.058Z,64.82
2022-09-20T09:10:43.572Z,64.28
2022-09-20T09:11:45.725Z,63.43
2022-09-20T09:12:48.664Z,62.53
2022-09-20T09:14:04.576Z,61.28
2022-09-20T09:15:26.461Z,60.90
2022-09-20T09:16:34.491Z,60.27
2022-09-20T09:17:31.919Z,59.64
2022-09-20T09:18:39.689Z,59.33
2022-09-20T09:19:53.943Z,58.54
2022-09-20T09:20:51.258Z,59.64
2022-09-20T09:21:47.983Z,60.15
2022-09-20T09:22:46.250Z,60.02
2022-09-20T09:23:50.702Z,61.18
2022-09-20T09:25:26.807Z,60.97
2022-09-20T09:26:25.028Z,59.44
2022-09-20T09:27:21.742Z,59.97
2022-09-20T09:28:23.935Z,59.34
2022-09-20T09:29:23.389Z,59.26
2022-09-20T09:30:27.347Z,59.88
2022-09-20T09:31:26.163Z,59.72
2022-09-20T09:32:29.560Z,60.70
2022-09-20T09:33:29.939Z,61.32
2022-09-20T09:34:31.054Z,60.49
2022-09-20T09:35:31.841Z,61.50
2022-09-20T09:36:28.601Z,60.19
2022-09-20T09:37:31.142Z,59.75
2022-09-20T09:38:38.113Z,60.52
2022-09-20T09:39:38.073Z,59.91
2022-09-20T09:40:34.941Z,59.98
2022-09-20T09:41:35.334Z,58.11
2022-09-20T09:42:33.130Z,58.64
2022-09-20T09:43:35.430Z,59.05
2022-09-20T09:44:34.010Z,58.60
2022-09-20T09:45:39.468Z,57.78
2022-09-20T09:46:40.000Z,57.33
2022-09-20T09:47:37.619Z,58.08
2022-09-20T09:48:36.977Z,58.56
2022-09-20T09:49:36.404Z,57.61
2022-09-20T09:50:34.799Z,55.25
2022-09-20T09:51:32.419Z,56.61
2022-09-20T09:52:33.274Z,56.28
2022-09-20T09:53:29.986Z,56.70
2022-09-20T09:54:37.267Z,55.63
2022-09-20T09:55:43.800Z,56.71
2022-09-20T09:57:02.553Z,57.34
2022-09-20T09:58:13.145Z,57.29
2022-09-20T09:59:42.252Z,57.89
2022-09-20T10:00:46.493Z,58.66
2022-09-20T10:01:55.696Z,59.26
2022-09-20T10:03:04.355Z,58.79
2022-09-20T10:04:36.237Z,59.46
2022-09-20T10:05:48.282Z,58.25
2022-09-20T10:07:10.739Z,58.83
2022-09-20T10:08:35.511Z,58.65
2022-09-20T10:09:47.197Z,57.77
2022-09-20T10:11:09.079Z,59.80
2022-09-20T10:12:29.601Z,56.75
2022-09-20T10:13:44.461Z,58.41
2022-09-20T10:14:59.696Z,55.61
2022-09-20T10:15:59.204Z,54.79
2022-09-20T10:17:17.821Z,56.65
2022-09-20T10:18:22.554Z,54.88
2022-09-20T10:20:03.523Z,54.08
2022-09-20T10:21:31.134Z,53.90
2022-09-20T10:23:00.313Z,52.58
2022-09-20T10:24:30.841Z,54.80
2022-09-20T10:25:48.565Z,53.09
2022-09-20T10:26:45.228Z,53.19
2022-09-20T10:28:48.403Z,53.30
2022-09-20T10:30:00.418Z,53.02
2022-09-20T10:31:45.982Z,53.12
2022-09-20T10:33:01.054Z,53.85
2022-09-20T10:34:46.927Z,54.32
2022-09-20T10:36:05.169Z,54.29
2022-09-20T10:37:02.491Z,54.25
2022-09-20T10:38:08.360Z,53.40
2022-09-20T10:39:17.353Z,54.01
2022-09-20T10:40:51.510Z,55.55
2022-09-20T10:42:43.760Z,53.81
2022-09-20T10:43:43.238Z,53.87
2022-09-20T10:44:58.602Z,53.66
2022-09-20T10:46:30.666Z,53.17
2022-09-20T10:47:46.810Z,53.91
2022-09-20T10:48:53.005Z,53.33
2022-09-20T10:49:52.660Z,53.48
2022-09-20T10:51:02.578Z,52.70
2022-09-20T10:52:05.698Z,54.09
2022-09-20T10:53:39.888Z,53.80
2022-09-20T10:54:49.159Z,53.89
2022-09-20T10:56:24.582Z,52.98
2022-09-20T10:57:52.392Z,53.58
2022-09-20T10:59:03.467Z,53.75
2022-09-20T11:00:22.242Z,52.96
2022-09-20T11:01:34.655Z,53.29
2022-09-20T11:02:43.185Z,52.65
2022-09-20T11:04:00.790Z,51.09
2022-09-20T11:05:03.273Z,52.05
2022-09-20T11:06:23.670Z,51.07
2022-09-20T11:07:42.902Z,51.42
2022-09-20T11:08:44.734Z,52.56
2022-09-20T11:09:52.178Z,53.16
2022-09-20T11:10:57.690Z,53.45
2022-09-20T11:12:10.841Z,51.44
2022-09-20T11:13:27.735Z,52.33
2022-09-20T11:14:42.276Z,50.55
2022-09-20T11:16:08.811Z,51.46
2022-09-20T11:17:26.831Z,52.52
2022-09-20T11:18:26.090Z,51.84
2022-09-20T11:19:33.143Z,51.68
2022-09-20T11:20:50.790Z,52.25
2022-09-20T11:22:02.494Z,52.66
2022-09-20T11:23:26.329Z,52.52
2022-09-20T11:25:03.738Z,52.89
2022-09-20T11:26:11.615Z,52.01
2022-09-20T11:27:32.779Z,51.67
2022-09-20T11:28:52.260Z,50.99
2022-09-20T11:30:15.310Z,51.13
2022-09-20T11:31:24.478Z,51.40
2022-09-20T11:32:30.884Z,49.96
2022-09-20T11:33:30.786Z,52.08
2022-09-20T11:34:34.441Z,51.06
2022-09-20T11:35:38.704Z,49.79
2022-09-20T11:36:52.265Z,49.79
2022-09-20T11:38:11.184Z,49.13
2022-09-20T11:39:23.127Z,50.56
2022-09-20T11:40:29.835Z,51.99
2022-09-20T11:41:29.411Z,52.62
2022-09-20T11:42:32.997Z,52.08
2022-09-20T11:43:31.747Z,51.79
2022-09-20T11:44:29.121Z,51.53
2022-09-20T11:45:28.977Z,51.77
2022-09-20T11:46:55.063Z,52.01
2022-09-20T11:48:02.686Z,51.37
2022-09-20T11:49:09.280Z,51.53
2022-09-20T11:50:38.420Z,52.00
2022-09-20T11:51:53.524Z,51.44
2022-09-20T11:53:08.689Z,51.66
2022-09-20T11:54:27.809Z,51.82
2022-09-20T11:55:48.372Z,53.94
2022-09-20T11:56:56.550Z,52.38
2022-09-20T11:58:08.157Z,52.39
2022-09-20T11:59:24.933Z,53.07
2022-09-20T12:00:32.388Z,52.54
2022-09-20T12:01:39.793Z,51.78
2022-09-20T12:02:54.447Z,51.19
2022-09-20T12:04:14.173Z,51.26
2022-09-20T12:05:33.906Z,50.93
2022-09-20T12:06:35.980Z,50.65
2022-09-20T12:07:41.251Z,51.00
2022-09-20T12:08:41.944Z,49.55
2022-09-20T12:09:43.730Z,48.97
2022-09-20T12:10:40.947Z,49.32
2022-09-20T12:11:41.273Z,49.59
2022-09-20T12:12:44.089Z,49.48
2022-09-20T12:14:00.873Z,49.26
2022-09-20T12:15:00.719Z,49.34
2022-09-20T12:16:34.941Z,50.02
2022-09-20T12:17:50.053Z,49.45
2022-09-20T12:19:02.956Z,50.04
2022-09-20T12:19:59.694Z,49.86
2022-09-20T12:20:56.317Z,49.08
2022-09-20T12:21:59.075Z,49.29
2022-09-20T12:23:34.424Z,49.20
2022-09-20T12:24:34.498Z,48.95
2022-09-20T12:25:37.133Z,48.70
2022-09-20T12:26:41.542Z,48.35
2022-09-20T12:27:38.292Z,49.65
2022-09-20T12:28:37.753Z,50.02
2022-09-20T12:29:34.377Z,49.35
2022-09-20T12:30:32.218Z,49.86
2022-09-20T12:31:32.420Z,49.79
2022-09-20T12:32:43.529Z,49.86
2022-09-20T12:34:03.202Z,49.04
2022-09-20T12:34:59.984Z,49.75
2022-09-20T12:36:15.733Z,49.06
2022-09-20T12:37:12.464Z,49.46
2022-09-20T12:38:21.248Z,49.39
2022-09-20T12:39:27.590Z,49.25
2022-09-20T12:40:26.592Z,49.06
2022-09-20T12:41:28.626Z,48.68
2022-09-20T12:42:32.381Z,47.94
2022-09-20T12:43:33.514Z,48.19
2022-09-20T12:44:40.293Z,48.15
2022-09-20T12:45:37.409Z,48.39
2022-09-20T12:46:50.245Z,47.35
2022-09-20T12:47:56.478Z,46.91
2022-09-20T12:49:43.610Z,46.38
2022-09-20T12:50:58.815Z,46.26
2022-09-20T12:52:14.233Z,46.32
2022-09-20T12:53:16.884Z,46.84
2022-09-20T12:54:14.106Z,47.91
2022-09-20T12:55:33.654Z,46.94
2022-09-20T12:56:34.226Z,47.40
2022-09-20T12:57:33.210Z,47.15
2022-09-20T12:58:53.670Z,46.87
2022-09-20T12:59:57.922Z,46.70
2022-09-20T13:00:59.328Z,46.14
2022-09-20T13:01:56.237Z,46.11
2022-09-20T13:02:52.937Z,46.92
2022-09-20T13:03:50.889Z,46.39
2022-09-20T13:04:55.595Z,47.04
2022-09-20T13:06:08.764Z,47.20
2022-09-20T13:07:40.078Z,46.69
2022-09-20T13:08:54.034Z,47.37
2022-09-20T13:09:51.098Z,47.13
2022-09-20T13:11:07.650Z,46.33
2022-09-20T13:12:05.465Z,45.71
2022-09-20T13:13:32.593Z,46.78
2022-09-20T13:14:32.644Z,46.68
2022-09-20T13:15:29.684Z,47.58
2022-09-20T13:16:51.298Z,45.88
2022-09-20T13:17:53.683Z,46.33
2022-09-20T13:19:16.510Z,46.21
2022-09-20T13:20:31.084Z,45.57
2022-09-20T13:21:28.486Z,45.33
2022-09-20T13:22:37.119Z,45.45
2022-09-20T13:23:48.623Z,45.71
2022-09-20T13:24:50.549Z,46.16
2022-09-20T13:25:49.934Z,46.91
2022-09-20T13:26:50.543Z,47.23
2022-09-20T13:27:56.345Z,46.64
2022-09-20T13:28:57.083Z,46.65
2022-09-20T13:29:53.814Z,46.47
2022-09-20T13:30:50.528Z,46.24
2022-09-20T13:31:47.543Z,46.32
2022-09-20T13:32:45.551Z,46.03
2022-09-20T13:33:42.295Z,45.30
2022-09-20T13:34:39.023Z,45.90
2022-09-20T13:35:35.761Z,45.25
2022-09-20T13:36:32.617Z,45.06
2022-09-20T13:37:30.302Z,46.12
2022-09-20T13:38:31.908Z,45.95
2022-09-20T13:39:36.204Z,45.53
2022-09-20T13:40:43.670Z,45.90
2022-09-20T13:41:40.542Z,46.53
2022-09-20T13:42:37.366Z,47.02
2022-09-20T13:43:41.593Z,45.92
2022-09-20T13:44:39.638Z,46.75
2022-09-20T13:45:36.979Z,46.59
2022-09-20T13:46:33.712Z,47.18
2022-09-20T13:47:32.311Z,47.37
2022-09-20T13:48:30.358Z,47.62
2022-09-20T13:49:32.275Z,47.52
2022-09-20T13:50:34.761Z,46.77
2022-09-20T13:51:34.764Z,45.69
2022-09-20T13:52:32.326Z,46.85
2022-09-20T13:53:41.476Z,46.80
2022-09-20T13:54:38.738Z,46.58
2022-09-20T13:55:40.682Z,47.24
2022-09-20T13:56:40.743Z,47.02
2022-09-20T13:57:41.292Z,48.50
2022-09-20T13:58:38.365Z,50.00
2022-09-20T13:59:45.416Z,50.15
2022-09-20T14:00:49.821Z,50.34
2022-09-20T14:01:55.430Z,50.47
2022-09-20T14:02:57.042Z,50.11
2022-09-20T14:03:54.607Z,50.82
2022-09-20T14:04:56.092Z,51.95
2022-09-20T14:06:13.538Z,52.17
2022-09-20T14:07:11.123Z,52.85
2022-09-20T14:08:27.937Z,53.30
2022-09-20T14:09:36.003Z,52.76
2022-09-20T14:10:41.037Z,53.00
2022-09-20T14:11:39.743Z,52.93
2022-09-20T14:12:38.716Z,53.44
2022-09-20T14:13:43.893Z,53.34
2022-09-20T14:14:41.972Z,53.89
2022-09-20T14:15:44.316Z,54.23
2022-09-20T14:16:49.015Z,53.82
2022-09-20T14:17:46.590Z,52.72
2022-09-20T14:18:47.094Z,50.51
2022-09-20T14:19:48.907Z,49.81
2022-09-20T14:20:46.454Z,50.32
2022-09-20T14:21:44.420Z,49.98
2022-09-20T14:22:43.910Z,51.51
2022-09-20T14:23:53.642Z,52.03
2022-09-20T14:25:17.431Z,52.27
2022-09-20T14:26:17.034Z,52.10
2022-09-20T14:27:19.965Z,51.99